SWA1441 KTYS-KBNA
Flight info
| Callsign | SWA1441 |
|---|---|
| Flight time | 0h 33m |
| Altitude | 20000 |
| Route | EDDDY SWFFT3 |
| Aircraft | B737/M-VGDW/C |
Departure
| Time | 2026-05-09 02:52 |
|---|---|
| Airport | McGhee Tyson Airport (KTYS) |
Arrival
| Time | 2026-05-09 03:26 |
|---|---|
| Airport | Nashville International Airport (KBNA) |
| Time | Latitude | Longitude | Altitude | Speed | Heading |
|---|---|---|---|---|---|
| 2026-05-09 02:47 | 35.80534 | -83.99258 | 965 ft | 0 kts | 324° |
| 2026-05-09 02:48 | 35.80537 | -83.99264 | 965 ft | 0 kts | 307° |
| 2026-05-09 02:48 | 35.80538 | -83.99265 | 965 ft | 1 kts | 302° |
| 2026-05-09 02:48 | 35.80566 | -83.99321 | 964 ft | 13 kts | 307° |
| 2026-05-09 02:49 | 35.80632 | -83.99415 | 966 ft | 14 kts | 322° |
| 2026-05-09 02:49 | 35.80715 | -83.99371 | 963 ft | 17 kts | 44° |
| 2026-05-09 02:49 | 35.80819 | -83.99244 | 964 ft | 25 kts | 45° |
| 2026-05-09 02:49 | 35.80955 | -83.99078 | 966 ft | 29 kts | 44° |
| 2026-05-09 02:50 | 35.81102 | -83.98900 | 963 ft | 30 kts | 45° |
| 2026-05-09 02:50 | 35.81257 | -83.98712 | 963 ft | 32 kts | 45° |
| 2026-05-09 02:50 | 35.81416 | -83.98517 | 960 ft | 33 kts | 45° |
| 2026-05-09 02:50 | 35.81543 | -83.98362 | 964 ft | 22 kts | 44° |
| 2026-05-09 02:51 | 35.81635 | -83.98270 | 961 ft | 6 kts | 29° |
| 2026-05-09 02:51 | 35.81660 | -83.98252 | 964 ft | 12 kts | 29° |
| 2026-05-09 02:51 | 35.81739 | -83.98272 | 961 ft | 11 kts | 274° |
| 2026-05-09 02:51 | 35.81607 | -83.98453 | 959 ft | 61 kts | 225° |
| 2026-05-09 02:52 | 35.81111 | -83.99053 | 960 ft | 134 kts | 225° |
| 2026-05-09 02:52 | 35.80347 | -83.99999 | 1230 ft | 167 kts | 225° |
| 2026-05-09 02:52 | 35.79532 | -84.01040 | 2097 ft | 172 kts | 226° |
| 2026-05-09 02:52 | 35.78713 | -84.02104 | 3046 ft | 167 kts | 225° |
| 2026-05-09 02:53 | 35.77896 | -84.03160 | 3791 ft | 179 kts | 224° |
| 2026-05-09 02:53 | 35.77008 | -84.04320 | 4387 ft | 190 kts | 224° |
| 2026-05-09 02:53 | 35.76411 | -84.05114 | 4905 ft | 189 kts | 225° |
| 2026-05-09 02:53 | 35.75500 | -84.06347 | 5430 ft | 206 kts | 225° |
| 2026-05-09 02:54 | 35.74466 | -84.07772 | 5659 ft | 240 kts | 232° |
| 2026-05-09 02:54 | 35.73800 | -84.09761 | 6282 ft | 260 kts | 254° |
| 2026-05-09 02:54 | 35.73560 | -84.12000 | 7212 ft | 266 kts | 263° |
| 2026-05-09 02:54 | 35.73462 | -84.14280 | 8226 ft | 267 kts | 265° |
| 2026-05-09 02:55 | 35.73386 | -84.16582 | 9218 ft | 269 kts | 266° |
| 2026-05-09 02:55 | 35.73309 | -84.18865 | 10155 ft | 271 kts | 266° |
| 2026-05-09 02:55 | 35.73224 | -84.21254 | 10632 ft | 292 kts | 266° |
| 2026-05-09 02:55 | 35.73124 | -84.23864 | 10838 ft | 319 kts | 266° |
| 2026-05-09 02:56 | 35.73011 | -84.26699 | 11120 ft | 340 kts | 266° |
| 2026-05-09 02:56 | 35.72889 | -84.29647 | 11830 ft | 347 kts | 266° |
| 2026-05-09 02:56 | 35.72761 | -84.32619 | 12699 ft | 348 kts | 266° |
| 2026-05-09 02:56 | 35.72630 | -84.35600 | 13612 ft | 349 kts | 266° |
| 2026-05-09 02:57 | 35.72494 | -84.38596 | 14466 ft | 351 kts | 266° |
| 2026-05-09 02:57 | 35.72358 | -84.41572 | 15270 ft | 353 kts | 266° |
| 2026-05-09 02:57 | 35.72218 | -84.44613 | 16094 ft | 356 kts | 266° |
| 2026-05-09 02:57 | 35.72075 | -84.47670 | 16875 ft | 359 kts | 266° |
| 2026-05-09 02:58 | 35.71931 | -84.50750 | 17689 ft | 361 kts | 266° |
| 2026-05-09 02:58 | 35.71784 | -84.53851 | 18427 ft | 364 kts | 266° |
| 2026-05-09 02:58 | 35.71635 | -84.56979 | 19137 ft | 365 kts | 266° |
| 2026-05-09 02:58 | 35.71485 | -84.60103 | 19677 ft | 366 kts | 266° |
| 2026-05-09 02:59 | 35.71336 | -84.63215 | 19960 ft | 362 kts | 266° |
| 2026-05-09 02:59 | 35.71185 | -84.66329 | 19992 ft | 368 kts | 266° |
| 2026-05-09 02:59 | 35.71034 | -84.69449 | 19999 ft | 369 kts | 266° |
| 2026-05-09 02:59 | 35.70881 | -84.72594 | 19996 ft | 367 kts | 266° |
| 2026-05-09 03:00 | 35.70726 | -84.75725 | 20000 ft | 366 kts | 266° |
| 2026-05-09 03:00 | 35.70571 | -84.78857 | 20002 ft | 366 kts | 266° |
| 2026-05-09 03:00 | 35.70417 | -84.81979 | 20000 ft | 366 kts | 266° |
| 2026-05-09 03:00 | 35.70261 | -84.85108 | 20001 ft | 366 kts | 266° |
| 2026-05-09 03:01 | 35.70104 | -84.88244 | 19998 ft | 367 kts | 266° |
| 2026-05-09 03:01 | 35.69948 | -84.91344 | 20000 ft | 367 kts | 266° |
| 2026-05-09 03:01 | 35.69789 | -84.94492 | 19991 ft | 368 kts | 266° |
| 2026-05-09 03:01 | 35.69629 | -84.97630 | 19991 ft | 367 kts | 266° |
| 2026-05-09 03:02 | 35.69469 | -85.00776 | 19996 ft | 367 kts | 266° |
| 2026-05-09 03:02 | 35.69339 | -85.03921 | 19990 ft | 368 kts | 268° |
| 2026-05-09 03:02 | 35.69259 | -85.07063 | 20008 ft | 368 kts | 269° |
| 2026-05-09 03:02 | 35.69194 | -85.10220 | 19987 ft | 369 kts | 269° |
| 2026-05-09 03:03 | 35.69131 | -85.13337 | 19991 ft | 369 kts | 269° |
| 2026-05-09 03:03 | 35.69064 | -85.16490 | 19997 ft | 368 kts | 269° |
| 2026-05-09 03:03 | 35.68992 | -85.19636 | 19995 ft | 368 kts | 268° |
| 2026-05-09 03:03 | 35.68917 | -85.22779 | 19994 ft | 368 kts | 268° |
| 2026-05-09 03:04 | 35.68839 | -85.25929 | 19986 ft | 368 kts | 268° |
| 2026-05-09 03:04 | 35.68759 | -85.29078 | 19995 ft | 367 kts | 268° |
| 2026-05-09 03:04 | 35.68678 | -85.32224 | 19997 ft | 367 kts | 268° |
| 2026-05-09 03:04 | 35.68596 | -85.35329 | 20000 ft | 367 kts | 268° |
| 2026-05-09 03:05 | 35.68513 | -85.38470 | 19993 ft | 368 kts | 268° |
| 2026-05-09 03:05 | 35.68428 | -85.41623 | 19992 ft | 368 kts | 268° |
| 2026-05-09 03:05 | 35.68343 | -85.44770 | 19993 ft | 368 kts | 268° |
| 2026-05-09 03:05 | 35.68256 | -85.47915 | 19984 ft | 368 kts | 268° |
| 2026-05-09 03:06 | 35.68166 | -85.51065 | 19984 ft | 368 kts | 268° |
| 2026-05-09 03:06 | 35.68080 | -85.54214 | 19975 ft | 368 kts | 268° |
| 2026-05-09 03:06 | 35.67997 | -85.57321 | 19994 ft | 368 kts | 268° |
| 2026-05-09 03:06 | 35.67911 | -85.60466 | 19987 ft | 368 kts | 268° |
| 2026-05-09 03:07 | 35.67822 | -85.63618 | 19993 ft | 368 kts | 268° |
| 2026-05-09 03:07 | 35.67732 | -85.66763 | 19990 ft | 368 kts | 268° |
| 2026-05-09 03:07 | 35.67640 | -85.69911 | 19969 ft | 368 kts | 268° |
| 2026-05-09 03:07 | 35.67548 | -85.73052 | 19970 ft | 367 kts | 268° |
| 2026-05-09 03:08 | 35.67455 | -85.76197 | 19978 ft | 367 kts | 268° |
| 2026-05-09 03:08 | 35.67362 | -85.79291 | 19980 ft | 366 kts | 268° |
| 2026-05-09 03:08 | 35.67268 | -85.82424 | 19980 ft | 366 kts | 268° |
| 2026-05-09 03:08 | 35.67173 | -85.85556 | 19983 ft | 366 kts | 268° |
| 2026-05-09 03:09 | 35.67077 | -85.88674 | 19841 ft | 362 kts | 268° |
| 2026-05-09 03:09 | 35.66982 | -85.91747 | 19588 ft | 358 kts | 268° |
| 2026-05-09 03:09 | 35.66887 | -85.94814 | 19361 ft | 359 kts | 268° |
| 2026-05-09 03:09 | 35.66792 | -85.97859 | 19132 ft | 362 kts | 268° |
| 2026-05-09 03:10 | 35.66694 | -86.00952 | 18900 ft | 363 kts | 268° |
| 2026-05-09 03:10 | 35.66823 | -86.04051 | 18649 ft | 365 kts | 281° |
| 2026-05-09 03:10 | 35.67647 | -86.07015 | 18438 ft | 368 kts | 293° |
| 2026-05-09 03:10 | 35.69053 | -86.09677 | 18195 ft | 374 kts | 306° |
| 2026-05-09 03:11 | 35.70803 | -86.12058 | 17965 ft | 376 kts | 310° |
| 2026-05-09 03:11 | 35.72550 | -86.14452 | 17688 ft | 374 kts | 305° |
| 2026-05-09 03:11 | 35.74124 | -86.16997 | 17275 ft | 372 kts | 303° |
| 2026-05-09 03:11 | 35.75623 | -86.19564 | 16579 ft | 368 kts | 302° |
| 2026-05-09 03:12 | 35.77107 | -86.22128 | 15876 ft | 364 kts | 302° |
| 2026-05-09 03:12 | 35.78577 | -86.24647 | 15202 ft | 360 kts | 302° |
| 2026-05-09 03:12 | 35.80040 | -86.27131 | 14531 ft | 357 kts | 303° |
| 2026-05-09 03:12 | 35.81483 | -86.29564 | 13882 ft | 355 kts | 303° |
| 2026-05-09 03:13 | 35.84398 | -86.34450 | 12467 ft | 351 kts | 303° |
| 2026-05-09 03:13 | 35.85850 | -86.36880 | 11792 ft | 349 kts | 303° |
| 2026-05-09 03:13 | 35.87286 | -86.39285 | 11108 ft | 347 kts | 303° |
| 2026-05-09 03:14 | 35.88677 | -86.41613 | 10909 ft | 332 kts | 303° |
| 2026-05-09 03:14 | 35.90020 | -86.43861 | 10738 ft | 318 kts | 303° |
| 2026-05-09 03:14 | 35.91303 | -86.46010 | 10586 ft | 304 kts | 302° |
| 2026-05-09 03:14 | 35.92531 | -86.48071 | 10491 ft | 292 kts | 302° |
| 2026-05-09 03:15 | 35.93710 | -86.50049 | 10365 ft | 280 kts | 302° |
| 2026-05-09 03:15 | 35.94849 | -86.51967 | 10136 ft | 273 kts | 302° |
| 2026-05-09 03:15 | 35.95958 | -86.53832 | 9886 ft | 267 kts | 302° |
| 2026-05-09 03:15 | 35.97059 | -86.55688 | 9483 ft | 268 kts | 302° |
| 2026-05-09 03:16 | 35.98160 | -86.57540 | 9073 ft | 269 kts | 303° |
| 2026-05-09 03:16 | 35.99568 | -86.59082 | 8627 ft | 278 kts | 330° |
| 2026-05-09 03:16 | 36.01462 | -86.59648 | 8247 ft | 286 kts | 358° |
| 2026-05-09 03:16 | 36.03425 | -86.59195 | 7912 ft | 287 kts | 15° |
| 2026-05-09 03:17 | 36.05287 | -86.58425 | 7550 ft | 284 kts | 17° |
| 2026-05-09 03:17 | 36.07161 | -86.57638 | 7057 ft | 284 kts | 17° |
| 2026-05-09 03:17 | 36.09035 | -86.56866 | 6598 ft | 283 kts | 17° |
| 2026-05-09 03:17 | 36.10896 | -86.56117 | 6132 ft | 280 kts | 16° |
| 2026-05-09 03:18 | 36.12761 | -86.55433 | 5660 ft | 279 kts | 15° |
| 2026-05-09 03:18 | 36.14612 | -86.54778 | 5174 ft | 276 kts | 15° |
| 2026-05-09 03:18 | 36.16461 | -86.54130 | 4674 ft | 275 kts | 15° |
| 2026-05-09 03:18 | 36.18282 | -86.53495 | 4194 ft | 277 kts | 15° |
| 2026-05-09 03:19 | 36.20137 | -86.52839 | 3896 ft | 275 kts | 15° |
| 2026-05-09 03:19 | 36.21972 | -86.52177 | 3551 ft | 274 kts | 15° |
| 2026-05-09 03:19 | 36.23808 | -86.51520 | 3198 ft | 274 kts | 15° |
| 2026-05-09 03:19 | 36.25626 | -86.50880 | 3039 ft | 265 kts | 11° |
| 2026-05-09 03:20 | 36.27375 | -86.51003 | 2999 ft | 243 kts | 332° |
| 2026-05-09 03:20 | 36.28555 | -86.52264 | 2998 ft | 212 kts | 291° |
| 2026-05-09 03:20 | 36.29100 | -86.53848 | 3002 ft | 191 kts | 286° |
| 2026-05-09 03:20 | 36.29582 | -86.55292 | 2998 ft | 179 kts | 286° |
| 2026-05-09 03:21 | 36.29784 | -86.56730 | 2984 ft | 163 kts | 246° |
| 2026-05-09 03:21 | 36.29167 | -86.57852 | 3015 ft | 161 kts | 226° |
| 2026-05-09 03:21 | 36.28410 | -86.58899 | 3020 ft | 165 kts | 226° |
| 2026-05-09 03:21 | 36.27622 | -86.59938 | 2996 ft | 164 kts | 216° |
| 2026-05-09 03:22 | 36.26612 | -86.60518 | 3014 ft | 160 kts | 201° |
| 2026-05-09 03:22 | 36.25564 | -86.60998 | 3011 ft | 160 kts | 200° |
| 2026-05-09 03:22 | 36.24495 | -86.61449 | 2861 ft | 164 kts | 199° |
| 2026-05-09 03:22 | 36.23415 | -86.61887 | 2640 ft | 162 kts | 199° |
| 2026-05-09 03:23 | 36.22358 | -86.62312 | 2440 ft | 158 kts | 199° |
| 2026-05-09 03:23 | 36.21350 | -86.62717 | 2233 ft | 144 kts | 199° |
| 2026-05-09 03:23 | 36.20464 | -86.63073 | 2061 ft | 128 kts | 199° |
| 2026-05-09 03:23 | 36.19603 | -86.63419 | 1883 ft | 131 kts | 198° |
| 2026-05-09 03:24 | 36.18744 | -86.63764 | 1713 ft | 129 kts | 198° |
| 2026-05-09 03:24 | 36.17892 | -86.64105 | 1527 ft | 131 kts | 197° |
| 2026-05-09 03:24 | 36.17003 | -86.64465 | 1374 ft | 137 kts | 198° |
| 2026-05-09 03:24 | 36.16078 | -86.64842 | 1169 ft | 142 kts | 198° |
| 2026-05-09 03:25 | 36.15134 | -86.65228 | 967 ft | 143 kts | 195° |
| 2026-05-09 03:25 | 36.14190 | -86.65596 | 744 ft | 139 kts | 199° |
| 2026-05-09 03:25 | 36.13280 | -86.65965 | 567 ft | 136 kts | 198° |
| 2026-05-09 03:25 | 36.12495 | -86.66280 | 565 ft | 96 kts | 198° |
| 2026-05-09 03:26 | 36.12161 | -86.66413 | 571 ft | 36 kts | 197° |
| 2026-05-09 03:26 | 36.11943 | -86.66500 | 577 ft | 30 kts | 198° |
| 2026-05-09 03:26 | 36.11841 | -86.66622 | 580 ft | 17 kts | 287° |
| 2026-05-09 03:26 | 36.11939 | -86.66644 | 580 ft | 16 kts | 19° |
| 2026-05-09 03:27 | 36.12044 | -86.66602 | 575 ft | 16 kts | 19° |
| 2026-05-09 03:27 | 36.12155 | -86.66556 | 571 ft | 17 kts | 16° |
| 2026-05-09 03:27 | 36.12236 | -86.66645 | 571 ft | 19 kts | 289° |
| 2026-05-09 03:27 | 36.12277 | -86.66804 | 571 ft | 20 kts | 287° |
| 2026-05-09 03:28 | 36.12353 | -86.66955 | 571 ft | 22 kts | 315° |
| 2026-05-09 03:28 | 36.12466 | -86.66966 | 571 ft | 19 kts | 27° |
| 2026-05-09 03:28 | 36.12592 | -86.66879 | 575 ft | 22 kts | 29° |
| 2026-05-09 03:28 | 36.12709 | -86.66781 | 570 ft | 15 kts | 41° |
| 2026-05-09 03:29 | 36.12787 | -86.66708 | 572 ft | 13 kts | 46° |
| 2026-05-09 03:29 | 36.12796 | -86.66653 | 571 ft | 2 kts | 91° |
| 2026-05-09 03:29 | 36.12796 | -86.66651 | 571 ft | 0 kts | 91° |